createdAt,value
2019-05-18T00:00:32.596Z,98.86
2019-05-18T00:02:03.351Z,98.28
2019-05-18T00:02:43.715Z,97.75
2019-05-18T00:03:24.127Z,97.18
2019-05-18T00:04:04.514Z,96.61
2019-05-18T00:04:45.865Z,95.94
2019-05-18T00:05:26.273Z,95.46
2019-05-18T00:06:47.088Z,95.46
2019-05-18T00:07:27.511Z,95.27
2019-05-18T00:08:07.876Z,95.56
2019-05-18T00:09:28.702Z,95.46
2019-05-18T00:10:09.120Z,95.46
2019-05-18T00:10:49.534Z,95.61
2019-05-18T00:11:29.930Z,95.61
2019-05-18T00:12:10.338Z,96.66
2019-05-18T00:12:50.696Z,96.47
2019-05-18T00:13:31.132Z,96.37
2019-05-18T00:14:11.538Z,96.75
2019-05-18T00:14:51.860Z,98.19
2019-05-18T00:15:32.300Z,98.66
2019-05-18T00:16:12.675Z,98.66
2019-05-18T00:16:53.062Z,98.86
2019-05-18T00:17:33.424Z,98.95
2019-05-18T00:18:13.842Z,98.95
2019-05-18T00:18:54.202Z,98.86
2019-05-18T00:19:34.631Z,97.9
2019-05-18T00:20:15.007Z,98.95
2019-05-18T00:20:55.433Z,98.57
2019-05-18T00:21:35.802Z,98.76
2019-05-18T00:22:16.235Z,98.38
2019-05-18T00:22:56.582Z,98.86
2019-05-18T00:24:17.389Z,99.15
2019-05-18T00:24:57.830Z,98.76
2019-05-18T00:25:38.265Z,99.52
2019-05-18T00:26:58.921Z,98.47
2019-05-18T00:27:39.322Z,98.76
2019-05-18T00:28:19.815Z,98.86
2019-05-18T00:29:00.119Z,98.95
2019-05-18T00:29:40.546Z,98.52
2019-05-18T00:30:20.974Z,99.19
2019-05-18T00:31:01.372Z,99.29
2019-05-18T00:31:41.752Z,99.38
2019-05-18T00:32:22.102Z,99.1
2019-05-18T00:33:02.513Z,98.9
2019-05-18T00:33:42.871Z,99.19
2019-05-18T00:34:23.311Z,98.9
2019-05-18T00:35:03.670Z,99.29
2019-05-18T00:35:44.074Z,99.29
2019-05-18T00:36:24.470Z,98.61
2019-05-18T00:37:04.822Z,99.1
2019-05-18T00:37:45.279Z,99.99
2019-05-18T00:38:25.584Z,99.99
2019-05-18T00:39:06.021Z,99.99
2019-05-18T00:39:46.376Z,99.99
2019-05-18T00:40:26.832Z,99.99
2019-05-18T00:41:07.168Z,99.99
2019-05-18T00:41:47.558Z,99.99
2019-05-18T00:42:28.012Z,99.99
2019-05-18T00:43:08.343Z,99.99
2019-05-18T00:43:48.721Z,99.99
2019-05-18T00:44:29.210Z,99.99
2019-05-18T00:45:09.493Z,99.99
2019-05-18T00:45:49.900Z,99.99
2019-05-18T00:46:30.289Z,99.99
2019-05-18T00:47:10.653Z,99.99
2019-05-18T00:47:51.080Z,99.99
2019-05-18T00:49:11.841Z,99.99
2019-05-18T00:49:52.216Z,99.99
2019-05-18T00:50:32.606Z,99.99
2019-05-18T00:51:13.022Z,99.99
2019-05-18T00:51:53.430Z,99.99
2019-05-18T00:52:33.750Z,99.99
2019-05-18T00:53:14.198Z,99.99
2019-05-18T00:53:54.518Z,99.99
2019-05-18T00:54:34.943Z,99.99
2019-05-18T00:55:15.288Z,99.99
2019-05-18T00:55:55.686Z,99.99
2019-05-18T00:56:36.068Z,99.99
2019-05-18T00:57:16.474Z,99.99
2019-05-18T00:57:56.908Z,99.99
2019-05-18T00:59:17.710Z,99.99
2019-05-18T00:59:58.048Z,99.99
2019-05-18T01:00:38.456Z,99.99
2019-05-18T01:01:59.272Z,99.99
2019-05-18T01:02:39.709Z,99.99
2019-05-18T01:03:20.089Z,99.99
2019-05-18T01:04:00.430Z,99.99
2019-05-18T01:04:40.809Z,99.99
2019-05-18T01:05:21.192Z,99.99
2019-05-18T01:06:01.632Z,99.99
2019-05-18T01:06:42.010Z,99.99
2019-05-18T01:07:22.377Z,99.99
2019-05-18T01:08:02.835Z,99.99
2019-05-18T01:08:43.248Z,99.99
2019-05-18T01:09:23.572Z,99.99
2019-05-18T01:10:03.967Z,99.99
2019-05-18T01:10:44.349Z,99.99
2019-05-18T01:11:24.788Z,99.99
2019-05-18T01:12:05.115Z,99.99
2019-05-18T01:12:45.558Z,99.99
2019-05-18T01:13:25.923Z,99.99
2019-05-18T01:14:06.343Z,99.99
2019-05-18T01:14:46.788Z,99.99
2019-05-18T01:15:27.098Z,99.99
2019-05-18T01:16:47.900Z,99.99
2019-05-18T01:17:28.234Z,99.99
2019-05-18T01:18:08.631Z,99.99
2019-05-18T01:18:49.050Z,99.99
2019-05-18T01:19:29.482Z,99.99
2019-05-18T01:20:09.886Z,99.99
2019-05-18T01:20:50.348Z,99.99
2019-05-18T01:21:30.688Z,99.99
2019-05-18T01:22:11.142Z,99.99
2019-05-18T01:22:51.521Z,99.99
2019-05-18T01:24:12.446Z,99.99
2019-05-18T01:24:52.842Z,99.99
2019-05-18T01:25:33.327Z,99.99
2019-05-18T01:26:13.664Z,99.99
2019-05-18T01:26:54.023Z,99.99
2019-05-18T01:27:34.450Z,99.99
2019-05-18T01:28:14.939Z,99.99
2019-05-18T01:28:55.375Z,99.99
2019-05-18T01:29:35.783Z,99.99
2019-05-18T01:30:16.146Z,99.99
2019-05-18T01:30:56.540Z,99.99
2019-05-18T01:31:36.979Z,99.99
2019-05-18T01:32:17.363Z,99.99
2019-05-18T01:32:57.776Z,99.99
2019-05-18T01:34:18.537Z,99.99
2019-05-18T01:34:58.926Z,99.99
2019-05-18T01:35:39.304Z,99.99
2019-05-18T01:36:19.718Z,99.99
2019-05-18T01:37:00.097Z,99.99
2019-05-18T01:37:40.473Z,99.99
2019-05-18T01:38:20.900Z,99.99
2019-05-18T01:39:01.238Z,99.99
2019-05-18T01:39:41.664Z,99.99
2019-05-18T01:40:22.103Z,99.99
2019-05-18T01:41:02.490Z,99.99
2019-05-18T01:41:42.933Z,99.99
2019-05-18T01:42:23.285Z,99.99
2019-05-18T01:43:03.715Z,99.99
2019-05-18T01:43:44.109Z,99.99
2019-05-18T01:44:24.530Z,99.99
2019-05-18T01:45:16.121Z,99.99
2019-05-18T01:45:45.369Z,99.99
2019-05-18T01:46:25.776Z,99.99
2019-05-18T01:47:06.182Z,99.99
2019-05-18T01:47:46.562Z,99.99
2019-05-18T01:49:07.404Z,99.99
2019-05-18T01:49:47.830Z,99.99
2019-05-18T01:50:28.229Z,99.99
2019-05-18T01:51:49.074Z,99.99
2019-05-18T01:52:29.521Z,99.99
2019-05-18T01:53:09.890Z,99.99
2019-05-18T01:53:50.290Z,99.99
2019-05-18T01:54:30.758Z,99.99
2019-05-18T01:55:11.094Z,99.99
2019-05-18T01:55:51.492Z,99.99
2019-05-18T01:56:31.906Z,99.99
2019-05-18T01:57:12.338Z,99.99
2019-05-18T01:57:52.733Z,99.99
2019-05-18T01:58:33.151Z,99.99
2019-05-18T01:59:13.540Z,99.99
2019-05-18T01:59:53.944Z,99.99
2019-05-18T02:00:34.431Z,99.99
2019-05-18T02:01:14.779Z,99.99
2019-05-18T02:01:55.252Z,99.99
2019-05-18T02:02:35.611Z,99.99
2019-05-18T02:03:16.033Z,99.99
2019-05-18T02:03:56.432Z,99.99
2019-05-18T02:04:36.888Z,99.99
2019-05-18T02:05:17.310Z,99.99
2019-05-18T02:06:38.093Z,99.99
2019-05-18T02:07:18.534Z,99.99
2019-05-18T02:07:58.896Z,99.99
2019-05-18T02:08:39.302Z,99.99
2019-05-18T02:09:19.744Z,99.99
2019-05-18T02:10:00.122Z,99.99
2019-05-18T02:10:40.538Z,99.99
2019-05-18T02:11:20.970Z,99.99
2019-05-18T02:12:01.392Z,99.99
2019-05-18T02:12:41.807Z,99.99
2019-05-18T02:14:02.674Z,99.99
2019-05-18T02:14:43.150Z,99.99
2019-05-18T02:15:23.524Z,99.99
2019-05-18T02:16:03.951Z,99.99
2019-05-18T02:16:44.367Z,99.99
2019-05-18T02:17:24.798Z,99.99
2019-05-18T02:18:05.226Z,99.99
2019-05-18T02:18:45.655Z,99.99
2019-05-18T02:19:26.104Z,99.99
2019-05-18T02:20:06.532Z,99.99
2019-05-18T02:21:27.361Z,99.99
2019-05-18T02:22:07.780Z,99.99
2019-05-18T02:22:48.205Z,99.99
2019-05-18T02:24:09.032Z,99.99
2019-05-18T02:24:49.446Z,99.99
2019-05-18T02:25:29.868Z,99.99
2019-05-18T02:26:10.297Z,99.99
2019-05-18T02:26:50.711Z,99.99
2019-05-18T02:27:31.085Z,99.99
2019-05-18T02:28:11.513Z,99.99
2019-05-18T02:28:51.878Z,99.99
2019-05-18T02:29:32.370Z,99.99
2019-05-18T02:30:16.888Z,99.99
2019-05-18T02:30:53.142Z,99.99
2019-05-18T02:31:33.552Z,99.99
2019-05-18T02:32:13.902Z,99.99
2019-05-18T02:32:54.301Z,99.99
2019-05-18T02:33:34.734Z,99.99
2019-05-18T02:34:15.185Z,99.99
2019-05-18T02:34:55.577Z,99.99
2019-05-18T02:35:36.014Z,99.99
2019-05-18T02:36:16.424Z,99.99
2019-05-18T02:36:56.856Z,99.99
2019-05-18T02:37:37.274Z,99.99
2019-05-18T02:38:58.116Z,99.99
2019-05-18T02:39:38.540Z,99.99
2019-05-18T02:40:18.968Z,99.99
2019-05-18T02:41:39.831Z,99.99
2019-05-18T02:42:20.249Z,99.99
2019-05-18T02:43:00.672Z,99.99
2019-05-18T02:43:41.100Z,99.99
2019-05-18T02:44:21.524Z,99.99
2019-05-18T02:45:01.944Z,99.99
2019-05-18T02:45:42.368Z,99.99
2019-05-18T02:46:22.793Z,99.99
2019-05-18T02:47:03.230Z,99.99
2019-05-18T02:47:43.636Z,99.99
2019-05-18T02:48:24.067Z,99.99
2019-05-18T02:49:04.494Z,99.99
2019-05-18T02:49:44.922Z,99.99
2019-05-18T02:50:25.316Z,99.76
2019-05-18T02:51:05.692Z,99.95
2019-05-18T02:51:46.121Z,99.85
2019-05-18T02:52:26.535Z,99.48
2019-05-18T02:53:06.973Z,99.19
2019-05-18T02:53:47.338Z,99.28
2019-05-18T02:54:27.745Z,99.28
2019-05-18T02:55:08.128Z,98.99
2019-05-18T02:56:28.933Z,99.99
2019-05-18T02:57:09.312Z,99.99
2019-05-18T02:57:49.706Z,99.99
2019-05-18T02:58:30.072Z,99.99
2019-05-18T02:59:10.439Z,99.99
2019-05-18T02:59:50.798Z,99.99
2019-05-18T03:00:31.174Z,99.99
2019-05-18T03:01:11.560Z,99.99
2019-05-18T03:01:51.984Z,99.99
2019-05-18T03:02:32.424Z,99.99
2019-05-18T03:03:12.780Z,99.99
2019-05-18T03:03:53.145Z,99.99
2019-05-18T03:04:33.550Z,99.99
2019-05-18T03:05:13.882Z,99.99
2019-05-18T03:05:54.284Z,99.99
2019-05-18T03:06:34.663Z,99.99
2019-05-18T03:07:15.038Z,99.99
2019-05-18T03:07:55.475Z,99.99
2019-05-18T03:08:35.873Z,99.99
2019-05-18T03:09:16.206Z,99.99
2019-05-18T03:09:56.593Z,99.99
2019-05-18T03:11:17.367Z,99.99
2019-05-18T03:11:57.757Z,99.99
2019-05-18T03:12:38.183Z,99.99
2019-05-18T03:13:58.976Z,99.99
2019-05-18T03:14:39.375Z,99.99
2019-05-18T03:15:19.760Z,99.99
2019-05-18T03:16:00.161Z,99.99
2019-05-18T03:16:40.570Z,99.99
2019-05-18T03:17:20.942Z,99.99
2019-05-18T03:18:01.458Z,99.99
2019-05-18T03:18:41.787Z,99.99
2019-05-18T03:19:22.199Z,99.99
2019-05-18T03:20:02.586Z,99.99
2019-05-18T03:20:42.994Z,99.99
2019-05-18T03:21:23.377Z,99.99
2019-05-18T03:22:03.783Z,99.99
2019-05-18T03:22:44.189Z,99.99
2019-05-18T03:23:24.583Z,99.99
2019-05-18T03:24:04.987Z,99.99
2019-05-18T03:24:45.395Z,99.99
2019-05-18T03:25:25.782Z,99.99
2019-05-18T03:26:06.193Z,99.99
2019-05-18T03:27:33.602Z,99.99
2019-05-18T03:28:14.050Z,99.99
2019-05-18T03:28:54.405Z,99.99
2019-05-18T03:29:34.829Z,99.99
2019-05-18T03:30:15.261Z,99.99
2019-05-18T03:30:55.681Z,99.99
2019-05-18T03:31:36.097Z,99.99
2019-05-18T03:32:16.528Z,99.99
2019-05-18T03:32:56.961Z,99.99
2019-05-18T03:33:37.376Z,99.99
2019-05-18T03:34:17.777Z,99.99
2019-05-18T03:34:58.205Z,99.99
2019-05-18T03:36:19.036Z,99.99
2019-05-18T03:36:59.451Z,99.99
2019-05-18T03:37:39.824Z,99.99
2019-05-18T03:38:20.230Z,99.99
2019-05-18T03:39:00.635Z,99.99
2019-05-18T03:39:41.067Z,99.99
2019-05-18T03:40:21.482Z,99.99
2019-05-18T03:41:01.896Z,99.99
2019-05-18T03:41:42.316Z,99.99
2019-05-18T03:42:22.746Z,99.99
2019-05-18T03:43:03.118Z,99.99
2019-05-18T03:43:43.524Z,99.99
2019-05-18T03:44:23.919Z,99.99
2019-05-18T03:45:04.298Z,99.99
2019-05-18T03:45:44.731Z,99.99
2019-05-18T03:46:25.141Z,99.99
2019-05-18T03:47:05.544Z,99.99
2019-05-18T03:47:45.954Z,99.99
2019-05-18T03:48:26.367Z,99.99
2019-05-18T03:49:23.560Z,99.99
2019-05-18T03:49:47.201Z,99.99
2019-05-18T03:51:08.042Z,99.99
2019-05-18T03:51:48.485Z,99.99
2019-05-18T03:52:28.850Z,99.99
2019-05-18T03:53:09.249Z,99.99
2019-05-18T03:53:49.679Z,99.99
2019-05-18T03:54:30.110Z,99.99
2019-05-18T03:55:10.514Z,99.99
2019-05-18T03:55:50.949Z,99.99
2019-05-18T03:56:31.381Z,99.99
2019-05-18T03:57:11.802Z,99.99
2019-05-18T03:57:52.273Z,99.99
2019-05-18T03:58:32.703Z,99.99
2019-05-18T03:59:13.090Z,99.99
2019-05-18T03:59:53.494Z,99.99
2019-05-18T04:01:14.319Z,99.99
2019-05-18T04:01:54.749Z,99.99
2019-05-18T04:02:35.179Z,99.99
2019-05-18T04:03:15.618Z,99.99
2019-05-18T04:03:56.033Z,99.99
2019-05-18T04:04:36.458Z,99.99
2019-05-18T04:05:16.911Z,99.99
2019-05-18T04:05:57.314Z,99.99
2019-05-18T04:06:37.740Z,99.99
2019-05-18T04:07:18.162Z,99.99
2019-05-18T04:08:39.011Z,99.99
2019-05-18T04:09:19.461Z,99.99
2019-05-18T04:09:59.830Z,99.99
2019-05-18T04:10:40.225Z,99.99
2019-05-18T04:11:20.653Z,99.99
2019-05-18T04:12:00.999Z,99.99
2019-05-18T04:12:41.412Z,99.99
2019-05-18T04:13:21.792Z,99.99
2019-05-18T04:14:02.165Z,99.99
2019-05-18T04:14:42.538Z,99.99
2019-05-18T04:15:22.960Z,99.99
2019-05-18T04:17:20.505Z,99.99
2019-05-18T04:18:00.873Z,99.99
2019-05-18T04:18:41.296Z,99.99
2019-05-18T04:19:21.715Z,99.99
2019-05-18T04:20:02.122Z,99.99
2019-05-18T04:20:42.548Z,99.99
2019-05-18T04:21:22.943Z,99.99
2019-05-18T04:22:03.380Z,99.99
2019-05-18T04:22:43.800Z,99.99
2019-05-18T04:23:24.208Z,99.99
2019-05-18T04:24:04.632Z,99.99
2019-05-18T04:24:45.049Z,99.99
2019-05-18T04:26:05.886Z,99.99
2019-05-18T04:26:46.286Z,99.99
2019-05-18T04:27:26.741Z,99.99
2019-05-18T05:06:35.396Z,99.99
2019-05-18T05:07:15.826Z,99.99
2019-05-18T05:07:56.195Z,99.99
2019-05-18T05:08:36.570Z,99.99
2019-05-18T05:09:16.982Z,99.99
2019-05-18T05:09:57.390Z,99.99
2019-05-18T05:11:18.236Z,99.99
2019-05-18T05:11:58.656Z,99.99
2019-05-18T05:12:39.072Z,99.99
2019-05-18T05:13:19.508Z,99.99
2019-05-18T05:13:59.922Z,99.99
2019-05-18T05:14:40.300Z,99.99
2019-05-18T05:15:20.734Z,99.99
2019-05-18T05:16:01.109Z,99.99
2019-05-18T05:16:41.503Z,99.99
2019-05-18T05:17:21.896Z,99.99
2019-05-18T05:18:02.300Z,99.99
2019-05-18T05:18:42.705Z,99.99
2019-05-18T05:19:23.102Z,99.99
2019-05-18T05:20:03.486Z,99.99
2019-05-18T05:20:43.897Z,99.99
2019-05-18T05:21:24.322Z,99.99
2019-05-18T05:22:04.730Z,99.99
2019-05-18T05:22:45.149Z,99.99
2019-05-18T05:23:25.571Z,99.99
2019-05-18T05:24:06.000Z,99.99
2019-05-18T05:24:46.427Z,99.99
2019-05-18T05:26:07.270Z,99.99
2019-05-18T05:26:47.716Z,99.99
2019-05-18T05:27:28.116Z,99.99
2019-05-18T05:28:08.551Z,99.99
2019-05-18T05:28:48.973Z,99.99
2019-05-18T05:29:29.421Z,99.99
2019-05-18T05:30:09.853Z,99.99
2019-05-18T05:30:50.272Z,99.99
2019-05-18T05:31:30.708Z,99.99
2019-05-18T05:32:11.131Z,99.99
2019-05-18T05:32:51.548Z,99.99
2019-05-18T05:33:31.990Z,99.99
2019-05-18T05:34:12.390Z,99.99
2019-05-18T05:34:52.830Z,99.99
2019-05-18T05:35:33.245Z,99.99
2019-05-18T05:36:13.687Z,99.99
2019-05-18T05:36:54.096Z,99.99
2019-05-18T05:37:34.524Z,99.99
2019-05-18T05:38:14.953Z,99.99
2019-05-18T05:38:55.336Z,99.99
2019-05-18T05:39:35.750Z,99.99
2019-05-18T05:40:56.559Z,99.99
2019-05-18T05:41:36.973Z,99.99
2019-05-18T05:42:17.362Z,99.99
2019-05-18T05:43:38.225Z,99.99
2019-05-18T05:44:18.612Z,99.99
2019-05-18T05:44:59.020Z,99.99
2019-05-18T05:45:39.423Z,99.99
2019-05-18T05:46:19.832Z,99.99
2019-05-18T05:47:00.225Z,99.99
2019-05-18T05:47:40.630Z,99.99
2019-05-18T05:48:21.036Z,99.99
2019-05-18T05:49:01.452Z,99.99
2019-05-18T05:49:41.881Z,99.99
2019-05-18T05:50:34.428Z,99.99
2019-05-18T05:51:02.669Z,99.99
2019-05-18T05:51:43.069Z,99.57
2019-05-18T05:52:23.430Z,98.76
2019-05-18T05:53:03.828Z,97.8
2019-05-18T05:53:44.180Z,97.8
2019-05-18T05:54:24.572Z,97.71
2019-05-18T05:55:04.945Z,96.66
2019-05-18T05:55:45.314Z,96.75
2019-05-18T05:56:25.720Z,98.47
2019-05-18T05:57:06.113Z,97.61
2019-05-18T05:58:26.891Z,98.09
2019-05-18T05:59:07.292Z,97.9
2019-05-18T05:59:47.662Z,96.75
2019-05-18T06:01:08.406Z,97.61
2019-05-18T06:01:48.809Z,97.8
2019-05-18T06:02:29.209Z,95.75
2019-05-18T06:03:09.667Z,95.07
2019-05-18T06:03:50.069Z,94.98
2019-05-18T06:04:30.474Z,93.74
2019-05-18T06:05:10.895Z,94.12
2019-05-18T06:05:51.312Z,93.35
2019-05-18T06:06:31.741Z,92.49
2019-05-18T06:07:12.167Z,91.82
2019-05-18T06:07:52.609Z,92.73
2019-05-18T06:08:33.044Z,92.35
2019-05-18T06:09:13.449Z,92.92
2019-05-18T06:09:53.878Z,93.49
2019-05-18T06:10:34.269Z,92.35
2019-05-18T06:11:14.691Z,91.39
2019-05-18T06:11:55.124Z,92.25
2019-05-18T06:12:35.561Z,92.54
2019-05-18T06:14:48.214Z,91
2019-05-18T06:15:28.835Z,90.91
2019-05-18T06:16:09.022Z,91.29
2019-05-18T06:16:49.445Z,90.76
2019-05-18T06:17:29.868Z,90.28
2019-05-18T06:18:10.300Z,89.28
2019-05-18T06:18:50.712Z,89.23
2019-05-18T06:19:31.136Z,88.65
2019-05-18T06:20:52.244Z,89.71
2019-05-18T06:21:32.354Z,90.09
2019-05-18T06:22:12.788Z,89.8
2019-05-18T06:22:53.216Z,90.09
2019-05-18T06:23:33.650Z,91.53
2019-05-18T06:24:14.061Z,90
2019-05-18T06:24:54.492Z,90.19
2019-05-18T06:25:35.018Z,89.42
2019-05-18T06:26:15.437Z,90.95
2019-05-18T06:26:55.855Z,89.61
2019-05-18T06:28:16.709Z,88.75
2019-05-18T06:28:57.110Z,88.75
2019-05-18T06:29:37.524Z,89.04
2019-05-18T06:30:17.943Z,88.56
2019-05-18T06:30:58.321Z,90.47
2019-05-18T06:31:38.757Z,89.42
2019-05-18T06:32:19.142Z,88.08
2019-05-18T06:32:59.550Z,88.41
2019-05-18T06:35:12.211Z,87.07
2019-05-18T06:35:52.605Z,85.63
2019-05-18T06:36:33.041Z,86.4
2019-05-18T06:37:13.448Z,86.11
2019-05-18T06:38:34.301Z,86.3
2019-05-18T06:39:14.725Z,88.12
2019-05-18T06:39:55.151Z,87.21
2019-05-18T06:40:35.553Z,85.96
2019-05-18T06:41:15.990Z,85.77
2019-05-18T06:41:56.465Z,87.07
2019-05-18T06:42:36.839Z,87.88
2019-05-18T06:43:17.238Z,87.11
2019-05-18T06:43:58.443Z,86.34
2019-05-18T06:44:38.038Z,85.19
2019-05-18T06:45:18.456Z,84.52
2019-05-18T06:45:58.893Z,84.71
2019-05-18T06:46:39.310Z,84.81
2019-05-18T06:47:19.679Z,85.48
2019-05-18T06:48:40.467Z,87.01
2019-05-18T06:49:20.908Z,86.25
2019-05-18T06:50:01.268Z,87.3
2019-05-18T06:50:41.679Z,87.01
2019-05-18T06:51:22.114Z,84.91
2019-05-18T06:52:02.563Z,85.33
2019-05-18T06:52:42.921Z,84.08
2019-05-18T06:54:03.760Z,82.78
2019-05-18T06:54:44.198Z,81.05
2019-05-18T06:55:24.609Z,79.61
2019-05-18T06:56:05.034Z,79.8
2019-05-18T06:56:45.408Z,79.99
2019-05-18T06:57:25.861Z,80.09
2019-05-18T06:58:06.229Z,79.07
2019-05-18T06:58:46.653Z,79.27
2019-05-18T06:59:27.099Z,78.98
2019-05-18T07:00:07.508Z,78.98
2019-05-18T07:00:47.964Z,78.3
2019-05-18T07:01:28.387Z,78.3
2019-05-18T07:02:08.793Z,77.48
2019-05-18T07:02:49.217Z,76.81
2019-05-18T07:03:29.620Z,76.17
2019-05-18T07:04:09.985Z,75.21
2019-05-18T07:04:50.421Z,72.74
2019-05-18T07:10:08.507Z,71.2
2019-05-18T07:10:46.921Z,71.4
2019-05-18T07:11:27.285Z,71.4
2019-05-18T07:12:08.615Z,71.69
2019-05-18T07:12:49.038Z,71.49
2019-05-18T07:13:29.444Z,71.11
2019-05-18T07:14:09.859Z,71.01
2019-05-18T07:14:50.243Z,71.97
2019-05-18T07:15:30.691Z,72.55
2019-05-18T07:16:11.128Z,72.45
2019-05-18T07:16:51.613Z,72.26
2019-05-18T07:17:34.555Z,72.55
2019-05-18T07:18:16.079Z,71.88
2019-05-18T07:19:18.824Z,72.36
2019-05-18T07:19:59.326Z,72.55
2019-05-18T07:20:39.647Z,71.78
2019-05-18T07:21:22.104Z,72.68
2019-05-18T07:23:33.723Z,69.35
2019-05-18T07:26:40.816Z,69.83
2019-05-18T07:27:21.750Z,68.96
2019-05-18T07:28:04.023Z,69.73
2019-05-18T07:28:46.956Z,69.54
2019-05-18T07:29:29.486Z,69.64
2019-05-18T07:30:09.925Z,69.15
2019-05-18T07:31:32.462Z,69.06
2019-05-18T07:32:13.859Z,68.77
2019-05-18T07:32:54.258Z,69.64
2019-05-18T07:33:34.605Z,69.79
2019-05-18T07:34:16.796Z,69.31
2019-05-18T07:34:56.941Z,69.79
2019-05-18T07:35:37.265Z,70.56
2019-05-18T07:36:17.800Z,70.56
2019-05-18T07:36:58.183Z,70.09
2019-05-18T07:37:38.675Z,70.86
2019-05-18T07:38:22.325Z,72.11
2019-05-18T07:39:02.595Z,70.28
2019-05-18T07:39:43.809Z,69.6
2019-05-18T07:40:24.368Z,69.6
2019-05-18T07:41:04.703Z,70.28
2019-05-18T07:41:46.983Z,70.09
2019-05-18T07:42:25.907Z,70.37
2019-05-18T07:43:06.465Z,69.99
2019-05-18T07:43:46.961Z,70.37
2019-05-18T07:44:27.502Z,69.99
2019-05-18T07:45:08.548Z,70.56
2019-05-18T07:45:48.898Z,70.37
2019-05-18T07:46:29.843Z,70.62
2019-05-18T07:47:10.236Z,71.4
2019-05-18T07:47:50.918Z,72.55
2019-05-18T07:48:31.312Z,72.84
2019-05-18T07:49:11.707Z,72.94
2019-05-18T07:49:52.096Z,73.38
2019-05-18T07:50:32.470Z,73.77
2019-05-18T07:51:13.890Z,73.8
2019-05-18T07:51:55.989Z,73.42
2019-05-18T07:52:36.363Z,73.42
2019-05-18T07:53:16.775Z,73.61
2019-05-18T07:53:57.139Z,73.13
2019-05-18T07:55:18.097Z,72.84
2019-05-18T07:55:58.474Z,72.45
2019-05-18T07:56:38.783Z,71.91
2019-05-18T07:57:19.229Z,71.43
2019-05-18T07:58:01.578Z,71.53
2019-05-18T07:58:41.958Z,70.21
2019-05-18T07:59:22.438Z,70.02
2019-05-18T08:00:43.075Z,69.54
2019-05-18T08:01:23.497Z,69.48
2019-05-18T08:02:03.935Z,68.32
2019-05-18T08:02:44.598Z,68.32
2019-05-18T08:03:24.682Z,67.49
2019-05-18T08:04:05.073Z,67.1
2019-05-18T08:04:45.406Z,66.14
2019-05-18T08:05:25.971Z,65.95
2019-05-18T08:06:06.288Z,66.27
2019-05-18T08:06:46.744Z,65.59
2019-05-18T08:07:27.184Z,65.01
2019-05-18T08:08:07.481Z,65.56
2019-05-18T08:08:47.969Z,66.33
2019-05-18T08:09:28.403Z,65.85
2019-05-18T08:10:10.020Z,65.56
2019-05-18T08:10:50.158Z,65.56
2019-05-18T08:11:30.535Z,65.75
2019-05-18T08:12:10.988Z,65.85
2019-05-18T08:12:51.684Z,65.95
2019-05-18T08:13:32.292Z,65.95
2019-05-18T08:14:12.640Z,65.69
2019-05-18T08:14:53.051Z,66.52
2019-05-18T08:15:33.500Z,65.56
2019-05-18T08:16:32.800Z,65.59
2019-05-18T08:17:13.234Z,66.24
2019-05-18T08:17:53.643Z,66.04
2019-05-18T08:18:33.975Z,65.47
2019-05-18T08:19:14.413Z,66.14
2019-05-18T08:19:54.900Z,66.24
2019-05-18T08:20:35.288Z,67.07
2019-05-18T08:21:15.939Z,68.13
2019-05-18T08:21:56.319Z,68.71
2019-05-18T08:22:36.637Z,69.35
2019-05-18T08:23:17.175Z,69.73
2019-05-18T08:25:06.218Z,70.41
2019-05-18T08:25:47.484Z,70.18
2019-05-18T08:26:27.917Z,71.24
2019-05-18T08:31:14.365Z,71.34
2019-05-18T08:31:59.689Z,72.01
2019-05-18T08:32:41.196Z,72.3
2019-05-18T08:33:21.666Z,71.62
2019-05-18T08:34:02.058Z,71.28
2019-05-18T08:34:42.412Z,71.08
2019-05-18T08:36:03.712Z,70.44
2019-05-18T08:36:44.125Z,69.77
2019-05-18T08:37:24.508Z,69.87
2019-05-18T08:38:04.911Z,68.71
2019-05-18T08:38:45.372Z,68.04
2019-05-18T08:39:25.854Z,68.07
2019-05-18T08:40:06.128Z,68.55
2019-05-18T08:40:46.553Z,66.72
2019-05-18T08:41:26.913Z,66.62
2019-05-18T08:42:07.451Z,66.91
2019-05-18T08:45:58.064Z,66.53
2019-05-18T08:46:38.701Z,65.17
2019-05-18T08:47:19.203Z,63.47
2019-05-18T08:48:40.288Z,62.02
2019-05-18T08:49:20.368Z,61.76
2019-05-18T08:50:05.382Z,59.92
2019-05-18T08:51:26.798Z,58.31
2019-05-18T08:52:08.535Z,58.89
2019-05-18T08:52:47.211Z,58.21
2019-05-18T08:54:08.139Z,58.34
2019-05-18T08:54:48.534Z,57.95
2019-05-18T08:55:30.725Z,56.7
2019-05-18T08:56:11.140Z,57.15
2019-05-18T08:56:51.472Z,57.28
2019-05-18T08:57:31.900Z,56.88
2019-05-18T08:58:12.249Z,56.88
2019-05-18T08:58:52.662Z,56.6
2019-05-18T08:59:33.041Z,56.6
2019-05-18T09:00:13.582Z,56.98
2019-05-18T09:00:54.076Z,57.11
2019-05-18T09:01:34.602Z,56.72
2019-05-18T09:02:15.232Z,56.52
2019-05-18T09:02:55.598Z,55.07
2019-05-18T09:03:35.942Z,55.07
2019-05-18T09:04:16.343Z,55.17
2019-05-18T09:04:56.725Z,55.4
2019-05-18T09:05:37.153Z,54.62
2019-05-18T09:06:17.539Z,54.84
2019-05-18T09:07:38.499Z,51.96
2019-05-18T09:08:18.948Z,51.98
2019-05-18T09:08:59.307Z,51.11
2019-05-18T09:10:20.216Z,50.24
2019-05-18T09:11:02.367Z,51.11
2019-05-18T09:11:42.838Z,50.82
2019-05-18T09:12:23.155Z,51.89
2019-05-18T09:13:03.669Z,51.21
2019-05-18T09:13:51.433Z,50.24
2019-05-18T09:14:32.887Z,50.6
2019-05-18T09:15:13.475Z,50.99
2019-05-18T09:15:54.086Z,51.47
2019-05-18T09:16:34.406Z,51.09
2019-05-18T09:17:14.810Z,50.99
2019-05-18T09:17:55.223Z,51.18
2019-05-18T09:18:36.622Z,51.93
2019-05-18T09:19:16.949Z,51.64
2019-05-18T09:19:58.930Z,51.64
2019-05-18T09:20:39.351Z,52.03
2019-05-18T09:21:19.748Z,52.58
2019-05-18T09:22:00.167Z,53.36
2019-05-18T09:22:40.519Z,52.97
2019-05-18T09:23:20.977Z,54.03
2019-05-18T09:24:03.223Z,53.75
2019-05-18T09:24:46.309Z,52.97
2019-05-18T09:25:28.698Z,53.65
2019-05-18T09:26:49.483Z,54.69
2019-05-18T09:27:29.891Z,56.14
2019-05-18T09:28:10.880Z,56.14
2019-05-18T09:29:32.657Z,55.76
2019-05-18T09:30:13.110Z,56.04
2019-05-18T09:30:53.473Z,56.3
2019-05-18T09:31:34.065Z,57.56
2019-05-18T09:32:14.334Z,58.14
2019-05-18T09:32:54.742Z,58.04
2019-05-18T09:33:36.781Z,58.04
2019-05-18T09:34:17.149Z,58.34
2019-05-18T09:35:15.791Z,57.18
2019-05-18T09:35:56.495Z,57.86
2019-05-18T09:36:36.915Z,57.28
2019-05-18T09:37:18.987Z,56.79
2019-05-18T09:37:59.409Z,57.46
2019-05-18T09:38:39.826Z,56.88
2019-05-18T09:40:01.172Z,55.36
2019-05-18T09:40:41.691Z,54.59
2019-05-18T09:41:22.128Z,53.55
2019-05-18T09:42:51.853Z,52.56
2019-05-18T09:43:32.447Z,52.85
2019-05-18T09:44:12.902Z,53.63
2019-05-18T09:44:55.244Z,54.13
2019-05-18T09:45:35.447Z,54.62
2019-05-18T09:46:15.944Z,53.97
2019-05-18T09:46:56.349Z,53.77
2019-05-18T09:47:39.228Z,53.61
2019-05-18T09:48:19.733Z,51.86
2019-05-18T09:49:00.100Z,51.01
2019-05-18T09:49:40.616Z,51.31
2019-05-18T09:50:20.952Z,50.72
2019-05-18T09:51:01.394Z,50.43
2019-05-18T09:51:41.846Z,49.95
2019-05-18T09:53:02.626Z,50.74
2019-05-18T09:53:50.959Z,49.58
2019-05-18T09:54:23.800Z,51.11
2019-05-18T09:55:04.030Z,51.04
2019-05-18T09:55:44.706Z,50.74
2019-05-18T09:56:24.870Z,48.9
2019-05-18T09:57:05.297Z,48.8
2019-05-18T09:57:45.603Z,49.58
2019-05-18T09:58:26.220Z,49
2019-05-18T09:59:06.495Z,48.52
2019-05-18T09:59:46.912Z,48.13
2019-05-18T10:00:27.291Z,48.83
2019-05-18T10:01:07.857Z,48.61
2019-05-18T10:01:48.262Z,48.93
2019-05-18T10:02:28.695Z,49.41
2019-05-18T10:03:09.047Z,49.12
2019-05-18T10:03:49.485Z,48.44
2019-05-18T10:04:29.823Z,47.59
2019-05-18T10:05:10.261Z,48.47
2019-05-18T10:05:50.833Z,47.01
2019-05-18T10:06:31.567Z,46.62
2019-05-18T10:07:11.616Z,46.06
2019-05-18T10:07:54.869Z,46.45
2019-05-18T10:08:35.213Z,45.97
2019-05-18T10:09:17.525Z,46.62
2019-05-18T10:09:58.071Z,47.03
2019-05-18T10:10:38.276Z,46.23
2019-05-18T10:11:23.375Z,46.72
2019-05-18T10:12:03.873Z,47.2
2019-05-18T10:12:44.231Z,48.37
2019-05-18T10:13:24.731Z,47.78
2019-05-18T10:14:05.080Z,47.69
2019-05-18T10:14:45.559Z,47.81
2019-05-18T10:15:26.017Z,46.74
2019-05-18T10:16:06.402Z,46.35
2019-05-18T10:16:46.747Z,45.89
2019-05-18T10:17:27.631Z,45.98
2019-05-18T10:18:08.072Z,45.4
2019-05-18T10:18:48.930Z,45.98
2019-05-18T10:19:30.444Z,46.08
2019-05-18T10:20:13.448Z,45.21